Time;durP1;ratioP1;P1;durP2;ratioP2;P2;SDS_P1;SDS_P2;PMS_P1;PMS_P2;Temp;Humidity;BMP_temperature;BMP_pressure;BME280_temperature;BME280_humidity;BME280_pressure;Samples;Min_cycle;Max_cycle;Signal;HPM_P1;HPM_P2
2023/11/25 00:00:46;;;;;;;0.20;0.20;;;;;;;6.73;66.06;101497.06;5045766;28;20035;-83
2023/11/25 00:03:13;;;;;;;0.10;0.10;;;;;;;6.71;66.11;101480.41;5038672;28;20025;-81
2023/11/25 00:05:39;;;;;;;1.17;1.17;;;;;;;6.69;65.56;101490.03;5037159;28;20036;-83
2023/11/25 00:08:05;;;;;;;0.10;0.10;;;;;;;6.71;66.29;101476.00;5035639;28;20485;-84
2023/11/25 00:10:32;;;;;;;0.20;0.20;;;;;;;6.68;65.07;101477.75;5034951;28;20520;-85
2023/11/25 00:12:59;;;;;;;0.20;0.20;;;;;;;6.71;66.06;101497.06;5033720;28;20033;-85
2023/11/25 00:15:25;;;;;;;0.10;0.10;;;;;;;6.69;65.89;101513.75;5037764;28;20056;-84
2023/11/25 00:17:52;;;;;;;0.68;0.68;;;;;;;6.66;66.10;101504.06;5039765;28;20044;-84
2023/11/25 00:20:19;;;;;;;0.10;0.10;;;;;;;6.69;67.01;101504.09;5040687;28;20034;-83
2023/11/25 00:22:45;;;;;;;0.20;0.20;;;;;;;6.68;67.50;101512.88;5037745;28;20033;-82
2023/11/25 00:25:12;;;;;;;0.20;0.20;;;;;;;6.75;67.78;101490.97;5038183;28;20037;-83
2023/11/25 00:27:39;;;;;;;0.20;0.20;;;;;;;6.82;68.44;101502.41;5037531;28;20041;-81
2023/11/25 00:30:07;;;;;;;0.20;0.20;;;;;;;6.85;68.63;101499.78;5037027;28;20025;-81
2023/11/25 00:32:37;;;;;;;0.30;0.30;;;;;;;6.87;68.95;101486.66;5036582;28;20033;-81
2023/11/25 00:35:05;;;;;;;0.10;0.10;;;;;;;6.92;69.33;101490.19;5037811;28;20036;-82
2023/11/25 00:37:32;;;;;;;0.20;0.20;;;;;;;6.89;69.65;101491.06;5037565;28;20052;-81
2023/11/25 00:39:59;;;;;;;0.20;0.20;;;;;;;6.90;69.70;101494.56;5037937;28;20040;-82
2023/11/25 00:42:26;;;;;;;1.65;1.30;;;;;;;6.90;69.55;101494.56;5037905;28;20112;-82
2023/11/25 00:44:53;;;;;;;0.20;0.20;;;;;;;6.90;69.75;101498.09;5039311;28;20021;-84
2023/11/25 00:47:22;;;;;;;0.20;0.20;;;;;;;6.90;69.84;101507.72;5039378;28;20025;-83
2023/11/25 00:49:49;;;;;;;0.20;0.20;;;;;;;6.89;69.72;101516.50;5039083;28;20036;-83
2023/11/25 00:52:15;;;;;;;0.20;0.20;;;;;;;6.82;69.42;101510.31;5037079;28;20026;-84
2023/11/25 00:54:42;;;;;;;0.10;0.10;;;;;;;6.92;69.02;101506.00;5038969;28;20029;-82
2023/11/25 00:57:08;;;;;;;0.20;0.20;;;;;;;7.03;69.10;101500.75;5036028;28;20029;-82
2023/11/25 00:59:34;;;;;;;3.55;3.22;;;;;;;7.02;68.51;101497.25;5035421;28;20408;-85
2023/11/25 01:02:00;;;;;;;0.20;0.20;;;;;;;7.05;68.81;101496.38;5040075;28;20089;-85
2023/11/25 01:04:27;;;;;;;0.10;0.10;;;;;;;7.00;68.70;101488.47;5040032;28;20041;-80
2023/11/25 01:06:53;;;;;;;0.20;0.20;;;;;;;6.98;68.03;101490.22;5041797;28;20029;-82
2023/11/25 01:09:19;;;;;;;0.10;0.10;;;;;;;6.92;67.70;101503.34;5039157;28;20033;-84
2023/11/25 01:11:46;;;;;;;0.20;0.20;;;;;;;6.89;67.80;101496.31;5037220;28;20507;-83
2023/11/25 01:14:12;;;;;;;0.10;0.10;;;;;;;6.87;68.10;101499.81;5038490;28;20033;-82
2023/11/25 01:16:39;;;;;;;0.20;0.20;;;;;;;6.79;67.63;101500.66;5038064;28;20476;-82
2023/11/25 01:19:05;;;;;;;0.20;0.20;;;;;;;6.71;67.54;101512.88;5040785;28;20083;-83
2023/11/25 01:21:32;;;;;;;0.10;0.10;;;;;;;6.71;67.30;101506.75;5037666;28;20025;-83
2023/11/25 01:23:58;;;;;;;0.15;0.15;;;;;;;6.69;67.51;101504.09;5037762;28;20052;-82
2023/11/25 01:26:24;;;;;;;0.20;0.20;;;;;;;6.66;67.28;101504.06;5037407;28;20032;-84
2023/11/25 01:28:52;;;;;;;0.20;0.20;;;;;;;6.62;67.77;101512.81;5037505;28;20029;-84
2023/11/25 01:31:18;;;;;;;0.20;0.20;;;;;;;6.57;67.76;101512.78;5036682;28;20044;-80
2023/11/25 01:33:44;;;;;;;0.15;0.15;;;;;;;6.52;67.45;101513.59;5036275;28;20451;-81
2023/11/25 01:36:11;;;;;;;0.15;0.15;;;;;;;6.48;67.31;101518.00;5035626;28;20029;-81
2023/11/25 01:38:38;;;;;;;0.17;0.17;;;;;;;6.46;67.26;101517.09;5037035;28;20025;-83
2023/11/25 01:41:05;;;;;;;0.17;0.17;;;;;;;6.39;67.40;101510.00;5036825;28;20053;-83
2023/11/25 01:43:32;;;;;;;0.20;0.20;;;;;;;6.37;67.58;101507.38;5038805;28;20021;-83
2023/11/25 01:46:01;;;;;;;0.20;0.20;;;;;;;6.30;67.72;101506.41;5037825;28;20129;-83
2023/11/25 01:48:28;;;;;;;0.20;0.20;;;;;;;6.26;67.80;101511.66;5042821;28;20052;-83
2023/11/25 01:50:55;;;;;;;0.20;0.20;;;;;;;6.23;67.88;101509.00;5042522;28;20057;-83
2023/11/25 01:53:22;;;;;;;0.20;0.20;;;;;;;6.18;67.98;101511.59;5039638;28;20029;-84
2023/11/25 01:55:53;;;;;;;0.20;0.20;;;;;;;6.17;67.99;101514.19;5038990;28;20057;-81
2023/11/25 01:58:20;;;;;;;0.20;0.20;;;;;;;6.14;67.80;101515.06;5037744;28;20030;-83
2023/11/25 02:00:47;;;;;;;0.20;0.20;;;;;;;6.15;67.58;101522.97;5037566;28;20128;-83
2023/11/25 02:03:14;;;;;;;0.20;0.20;;;;;;;6.18;67.98;101526.50;5036205;28;20030;-82
2023/11/25 02:05:42;;;;;;;0.20;0.20;;;;;;;6.23;67.99;101514.25;5037774;28;20105;-84
2023/11/25 02:08:09;;;;;;;0.20;0.20;;;;;;;6.29;67.89;101514.31;5036867;28;20037;-84
2023/11/25 02:10:36;;;;;;;0.20;0.20;;;;;;;6.30;67.25;101505.56;5036612;28;20036;-82
2023/11/25 02:13:03;;;;;;;11.50;1.85;;;;;;;6.43;67.56;101507.41;5035437;28;20044;-84
2023/11/25 02:15:30;;;;;;;0.10;0.10;;;;;;;6.44;67.23;101496.03;5036342;28;20037;-83
2023/11/25 02:17:56;;;;;;;0.20;0.20;;;;;;;6.49;66.69;101501.31;5036469;28;20025;-82
2023/11/25 02:20:35;;;;;;;0.20;0.20;;;;;;;6.57;66.73;101504.03;5037020;28;20034;-83
2023/11/25 02:23:02;;;;;;;0.10;0.10;;;;;;;6.54;66.87;101501.34;5035097;28;20025;-82
2023/11/25 02:25:28;;;;;;;0.20;0.20;;;;;;;6.54;66.86;101501.34;5035809;28;20036;-83
2023/11/25 02:27:55;;;;;;;0.20;0.20;;;;;;;6.51;66.10;101499.56;5035793;28;20116;-82
2023/11/25 02:30:25;;;;;;;0.20;0.20;;;;;;;6.54;66.47;101496.06;5035779;28;20041;-80
2023/11/25 02:32:51;;;;;;;0.10;0.10;;;;;;;6.57;66.18;101509.28;5034074;28;20059;-80
2023/11/25 02:35:18;;;;;;;0.20;0.20;;;;;;;6.54;65.83;101509.25;5035188;28;20033;-83
2023/11/25 02:37:45;;;;;;;0.10;0.10;;;;;;;6.51;65.44;101507.47;5034546;28;20072;-83
2023/11/25 02:40:16;;;;;;;0.20;0.20;;;;;;;6.64;65.56;101511.06;5036079;28;20432;-82
2023/11/25 02:42:47;;;;;;;0.10;0.10;;;;;;;6.73;66.28;101516.41;5034989;28;20517;-83
2023/11/25 02:45:18;;;;;;;0.38;0.38;;;;;;;6.81;65.64;101511.19;5035977;28;20500;-84
2023/11/25 02:47:45;;;;;;;0.20;0.20;;;;;;;6.89;65.82;101505.97;5036225;28;20026;-84
2023/11/25 02:50:13;;;;;;;0.20;0.20;;;;;;;6.93;65.54;101506.00;5036044;28;20060;-81
2023/11/25 02:52:40;;;;;;;0.10;0.10;;;;;;;6.98;66.02;101500.75;5034470;28;20030;-84
2023/11/25 02:55:10;;;;;;;0.10;0.10;;;;;;;6.99;65.89;101494.63;5034754;28;20029;-83
2023/11/25 02:57:37;;;;;;;1.38;1.38;;;;;;;6.97;66.04;101499.00;5034847;28;20100;-83
2023/11/25 03:00:10;;;;;;;0.10;0.10;;;;;;;6.96;66.38;101487.56;5034481;28;20038;-83
2023/11/25 03:02:37;;;;;;;0.10;0.10;;;;;;;6.90;66.47;101484.03;5034124;28;20029;-85
2023/11/25 03:05:04;;;;;;;0.75;0.75;;;;;;;6.88;66.54;101483.13;5036188;28;20041;-83
2023/11/25 03:07:30;;;;;;;0.20;0.20;;;;;;;6.82;66.33;101490.97;5035314;28;20067;-82
2023/11/25 03:09:56;;;;;;;0.10;0.10;;;;;;;6.76;66.40;101484.81;5035843;28;20400;-83
2023/11/25 03:12:23;;;;;;;0.10;0.10;;;;;;;6.76;66.37;101495.34;5034906;28;20079;-83
2023/11/25 03:14:49;;;;;;;0.20;0.20;;;;;;;6.77;66.58;101491.84;5036018;28;20101;-84
2023/11/25 03:17:15;;;;;;;0.20;0.20;;;;;;;6.74;65.98;101486.56;5036902;28;20037;-84
2023/11/25 03:19:41;;;;;;;0.20;0.20;;;;;;;6.74;66.57;101486.56;5036345;28;20516;-84
2023/11/25 03:22:07;;;;;;;0.20;0.20;;;;;;;6.77;66.34;101481.31;5035252;28;20029;-83
2023/11/25 03:24:33;;;;;;;0.17;0.17;;;;;;;6.80;66.25;101473.44;5035786;28;20037;-83
2023/11/25 03:27:00;;;;;;;0.20;0.20;;;;;;;6.76;66.34;101469.00;5036253;28;20025;-82
2023/11/25 03:29:26;;;;;;;0.20;0.20;;;;;;;6.78;67.10;101467.28;5036243;28;20091;-84
2023/11/25 03:31:52;;;;;;;0.20;0.20;;;;;;;6.81;66.59;101461.16;5034735;28;20036;-82
2023/11/25 03:34:18;;;;;;;0.20;0.20;;;;;;;6.79;67.01;101463.78;5034277;28;20080;-81
2023/11/25 03:36:45;;;;;;;0.93;0.80;;;;;;;6.84;66.82;101457.66;5037154;28;20064;-82
2023/11/25 03:39:13;;;;;;;0.30;0.30;;;;;;;6.84;66.74;101465.53;5036036;28;20026;-84
2023/11/25 03:41:39;;;;;;;0.20;0.20;;;;;;;6.82;66.67;101457.66;5036091;28;20026;-84
2023/11/25 03:44:06;;;;;;;0.10;0.10;;;;;;;6.77;66.50;101460.25;5039796;28;20026;-84
2023/11/25 03:46:33;;;;;;;0.10;0.10;;;;;;;6.76;67.10;101463.75;5040963;28;20026;-81
2023/11/25 03:48:59;;;;;;;0.10;0.10;;;;;;;6.82;67.40;101456.75;5036354;28;20037;-83
2023/11/25 03:51:25;;;;;;;0.20;0.20;;;;;;;6.75;67.05;101459.38;5046225;28;20444;-82
2023/11/25 03:53:51;;;;;;;0.17;0.17;;;;;;;6.86;67.00;101463.81;5052462;28;20112;-80
2023/11/25 03:56:18;;;;;;;0.20;0.20;;;;;;;6.87;66.16;101465.56;5054800;28;20079;-81
2023/11/25 03:58:44;;;;;;;0.20;0.20;;;;;;;6.98;66.69;101479.69;5059185;28;20038;-82
2023/11/25 04:01:10;;;;;;;0.20;0.20;;;;;;;7.04;66.37;101484.97;5056300;28;20040;-83
2023/11/25 04:03:36;;;;;;;0.10;0.10;;;;;;;7.12;66.08;101480.59;5052196;28;20092;-83
2023/11/25 04:06:03;;;;;;;0.10;0.10;;;;;;;7.12;66.00;101495.56;5051564;28;20099;-81
2023/11/25 04:08:33;;;;;;;0.10;0.10;;;;;;;7.17;66.83;101495.59;5047869;28;20030;-83
2023/11/25 04:11:00;;;;;;;0.20;0.20;;;;;;;7.22;66.61;101493.84;5042549;28;20030;-82
2023/11/25 04:13:26;;;;;;;0.10;0.10;;;;;;;7.23;66.76;101501.75;5040393;28;20048;-82
2023/11/25 04:15:52;;;;;;;0.20;0.20;;;;;;;7.25;66.29;101507.03;5038762;28;20029;-84
2023/11/25 04:18:18;;;;;;;0.10;0.10;;;;;;;7.16;65.66;101518.41;5038132;28;20043;-82
2023/11/25 04:20:44;;;;;;;0.35;0.35;;;;;;;7.35;65.90;101495.66;5039404;28;20048;-82
2023/11/25 04:23:14;;;;;;;0.13;0.13;;;;;;;7.42;66.47;101491.28;5038492;28;20393;-81
2023/11/25 04:25:43;;;;;;;0.20;0.20;;;;;;;7.48;65.49;101479.84;5038511;28;20290;-81
2023/11/25 04:28:12;;;;;;;0.10;0.10;;;;;;;7.48;64.56;101469.31;5038318;28;20025;-81
2023/11/25 04:30:39;;;;;;;0.20;0.20;;;;;;;7.59;65.27;101464.97;5038533;28;20205;-84
2023/11/25 04:33:10;;;;;;;0.20;0.20;;;;;;;7.59;64.53;101483.44;5035318;28;20124;-82
2023/11/25 04:35:37;;;;;;;0.20;0.20;;;;;;;7.62;64.91;101478.16;5035493;28;20120;-83
2023/11/25 04:38:04;;;;;;;0.20;0.20;;;;;;;7.59;64.00;101486.06;5035277;28;20035;-82
2023/11/25 04:40:31;;;;;;;0.10;0.10;;;;;;;7.59;64.26;101496.63;5035479;28;20029;-81
2023/11/25 04:42:58;;;;;;;0.20;0.20;;;;;;;7.53;64.71;101512.44;5034091;28;20037;-81
2023/11/25 04:45:25;;;;;;;0.20;0.20;;;;;;;7.57;65.83;101524.72;5034676;28;20076;-84
2023/11/25 04:47:51;;;;;;;0.10;0.10;;;;;;;7.38;66.45;101518.53;5034408;28;20087;-79
2023/11/25 04:50:20;;;;;;;0.17;0.17;;;;;;;7.40;67.42;101514.13;5034800;28;20025;-79
2023/11/25 04:52:46;;;;;;;0.10;0.10;;;;;;;7.21;68.32;101500.00;5032982;28;20045;-79
2023/11/25 04:55:13;;;;;;;0.20;0.20;;;;;;;7.17;68.48;101504.34;5034561;28;20033;-79
2023/11/25 04:57:40;;;;;;;0.20;0.20;;;;;;;7.11;68.58;101491.16;5033788;28;20096;-79
2023/11/25 05:00:10;;;;;;;0.20;0.20;;;;;;;7.03;68.67;101482.31;5034008;28;20087;-82
2023/11/25 05:02:37;;;;;;;0.52;0.52;;;;;;;6.98;68.14;101477.06;5034748;28;20477;-80
2023/11/25 05:05:04;;;;;;;0.10;0.10;;;;;;;6.93;68.25;101466.47;5035366;28;20406;-82
2023/11/25 05:07:31;;;;;;;0.17;0.17;;;;;;;6.86;68.51;101463.81;5034806;28;20041;-80
2023/11/25 05:09:57;;;;;;;0.20;0.20;;;;;;;6.82;68.60;101464.66;5035886;28;20033;-81
2023/11/25 05:12:23;;;;;;;0.20;0.20;;;;;;;6.77;68.68;101470.78;5034616;28;20516;-81
2023/11/25 05:14:50;;;;;;;0.20;0.20;;;;;;;6.67;68.71;101465.44;5035219;28;20033;-82
2023/11/25 05:17:18;;;;;;;0.20;0.20;;;;;;;6.65;68.91;101449.63;5036013;28;20095;-82
2023/11/25 05:19:44;;;;;;;0.20;0.20;;;;;;;6.57;69.16;101454.00;5035571;28;20124;-80
2023/11/25 05:22:10;;;;;;;0.20;0.20;;;;;;;6.54;69.48;101453.97;5034796;28;20021;-81
2023/11/25 05:24:36;;;;;;;0.20;0.20;;;;;;;6.53;69.75;101452.19;5035270;28;20040;-82
2023/11/25 05:27:03;;;;;;;0.20;0.20;;;;;;;6.52;69.35;101451.31;5035071;28;20053;-81
2023/11/25 05:29:30;;;;;;;0.10;0.10;;;;;;;6.54;69.75;101451.31;5034790;28;20037;-81
2023/11/25 05:31:57;;;;;;;0.20;0.20;;;;;;;6.49;70.71;101482.88;5035836;28;20025;-78
2023/11/25 05:34:25;;;;;;;0.13;0.13;;;;;;;6.46;70.66;101489.00;5035985;28;20504;-81
2023/11/25 05:36:51;;;;;;;0.10;0.10;;;;;;;6.44;70.53;101480.22;5034658;28;20030;-80
2023/11/25 05:39:20;;;;;;;0.10;0.10;;;;;;;6.43;71.56;101478.47;5035984;28;20029;-81
2023/11/25 05:41:47;;;;;;;0.20;0.20;;;;;;;6.47;71.30;101459.19;5044190;28;20025;-82
2023/11/25 05:44:13;;;;;;;0.20;0.20;;;;;;;6.46;70.33;101454.78;5046228;28;20033;-81
2023/11/25 05:46:40;;;;;;;0.20;0.20;;;;;;;6.53;70.02;101455.72;5045628;28;20060;-81
2023/11/25 05:49:09;;;;;;;0.10;0.10;;;;;;;6.56;69.40;101449.59;5041679;28;20037;-80
2023/11/25 05:51:38;;;;;;;0.20;0.20;;;;;;;6.71;69.24;101447.03;5039749;28;20029;-81
2023/11/25 05:54:05;;;;;;;0.10;0.10;;;;;;;6.69;68.70;101443.53;5038535;28;20041;-80
2023/11/25 05:56:32;;;;;;;0.13;0.13;;;;;;;6.72;68.73;101450.56;5038281;28;20517;-82
2023/11/25 05:58:58;;;;;;;0.20;0.20;;;;;;;6.71;68.50;101439.13;5038384;28;20095;-81
2023/11/25 06:01:26;;;;;;;0.20;0.20;;;;;;;6.72;67.84;101446.16;5034837;28;20037;-81
2023/11/25 06:03:53;;;;;;;0.15;0.15;;;;;;;6.74;68.09;101451.44;5038739;28;20052;-82
2023/11/25 06:06:21;;;;;;;0.20;0.20;;;;;;;6.77;68.53;101447.06;5039362;28;20052;-82
2023/11/25 06:08:47;;;;;;;0.20;0.20;;;;;;;6.77;67.85;101448.84;5037949;28;20040;-82
2023/11/25 06:13:58;;;;;;;0.20;0.20;;;;;;;6.85;68.65;101426.03;5098415;28;20390;-83
2023/11/25 06:16:24;;;;;;;0.15;0.15;;;;;;;6.82;68.68;101430.41;5089713;28;20092;-82
2023/11/25 06:18:51;;;;;;;0.20;0.20;;;;;;;6.87;68.57;101424.31;5079419;28;20038;-80
2023/11/25 06:21:19;;;;;;;0.20;0.20;;;;;;;6.86;68.61;101427.81;5073468;28;20040;-82
2023/11/25 06:23:46;;;;;;;0.13;0.13;;;;;;;6.85;68.64;101425.16;5073950;28;20488;-82
2023/11/25 06:26:13;;;;;;;0.10;0.10;;;;;;;6.83;69.06;101421.63;5072675;28;20039;-80
2023/11/25 06:28:41;;;;;;;0.20;0.20;;;;;;;6.85;68.86;101419.91;5073020;28;20036;-81
2023/11/25 06:31:08;;;;;;;0.20;0.20;;;;;;;6.91;68.78;101409.38;5072136;28;20035;-81
2023/11/25 06:33:34;;;;;;;0.10;0.10;;;;;;;6.91;68.61;101410.25;5072261;28;20021;-81
2023/11/25 06:36:00;;;;;;;0.10;0.10;;;;;;;6.94;69.20;101412.03;5072314;28;20116;-83
2023/11/25 06:38:27;;;;;;;0.20;0.20;;;;;;;6.93;69.03;101412.91;5071829;28;20029;-83
2023/11/25 06:40:53;;;;;;;0.20;0.20;;;;;;;6.96;68.51;101405.00;5071800;28;20128;-84
2023/11/25 06:43:19;;;;;;;0.17;0.17;;;;;;;6.91;69.25;101409.38;5071135;28;20025;-84
2023/11/25 06:45:45;;;;;;;0.10;0.10;;;;;;;7.02;69.60;101406.81;5071750;28;20028;-81
2023/11/25 06:48:12;;;;;;;0.65;0.65;;;;;;;7.10;69.45;101405.06;5071231;28;20037;-82
2023/11/25 06:50:38;;;;;;;0.40;0.40;;;;;;;7.15;68.92;101407.72;5070960;28;20064;-83
2023/11/25 06:53:04;;;;;;;0.10;0.10;;;;;;;7.20;69.29;101411.25;5071952;28;20166;-82
2023/11/25 06:55:33;;;;;;;0.10;0.10;;;;;;;7.25;68.92;101417.41;5070136;28;20033;-84
2023/11/25 06:57:59;;;;;;;0.10;0.10;;;;;;;7.24;69.38;101434.09;5070186;28;20048;-82
2023/11/25 07:00:26;;;;;;;0.10;0.10;;;;;;;7.25;69.85;101430.59;5069744;28;20048;-83
2023/11/25 07:02:52;;;;;;;0.15;0.15;;;;;;;7.35;69.57;101424.50;5066570;28;20442;-81
2023/11/25 07:05:18;;;;;;;0.30;0.30;;;;;;;7.47;69.25;101414.84;5070243;28;20037;-81
2023/11/25 07:07:44;;;;;;;0.20;0.20;;;;;;;7.40;69.33;101425.38;5070128;28;20060;-82
2023/11/25 07:10:13;;;;;;;0.10;0.10;;;;;;;7.41;68.06;101429.78;5069882;28;20102;-82
2023/11/25 07:12:40;;;;;;;0.10;0.10;;;;;;;7.43;68.26;101430.63;5068904;28;20032;-81
2023/11/25 07:15:08;;;;;;;0.20;0.20;;;;;;;7.51;67.74;101429.78;5069273;28;20384;-81
2023/11/25 07:17:36;;;;;;;0.17;0.17;;;;;;;7.50;66.68;101425.38;5068720;28;20483;-82
2023/11/25 07:20:05;;;;;;;0.20;0.20;;;;;;;7.51;66.99;101438.56;5070301;28;20021;-81
2023/11/25 07:22:32;;;;;;;0.10;0.10;;;;;;;7.59;67.92;101407.81;5068935;28;20027;-84
2023/11/25 07:24:58;;;;;;;0.20;0.20;;;;;;;7.53;67.30;101412.22;5057531;28;20028;-81
2023/11/25 07:27:24;;;;;;;0.20;0.20;;;;;;;7.45;67.79;101423.63;5055241;28;20033;-81
2023/11/25 07:29:50;;;;;;;0.10;0.10;;;;;;;7.51;68.42;101412.19;5056281;28;20078;-81
2023/11/25 07:32:17;;;;;;;0.10;0.10;;;;;;;7.56;68.28;101409.56;5053090;28;20044;-81
2023/11/25 07:34:43;;;;;;;0.10;0.10;;;;;;;7.56;67.78;101399.94;5056063;28;20037;-83
2023/11/25 07:37:09;;;;;;;0.10;0.10;;;;;;;7.55;68.24;101399.91;5054971;28;20033;-83
2023/11/25 07:39:35;;;;;;;0.10;0.10;;;;;;;7.55;68.67;101407.81;5056443;28;20041;-82
2023/11/25 07:42:02;;;;;;;0.10;0.10;;;;;;;7.56;68.55;101415.75;5056007;28;20032;-83
2023/11/25 07:44:30;;;;;;;0.10;0.10;;;;;;;7.54;67.87;101411.31;5060424;28;20029;-82
2023/11/25 07:46:57;;;;;;;0.10;0.10;;;;;;;7.51;68.66;101406.91;5057407;28;20029;-82
2023/11/25 07:49:24;;;;;;;0.20;0.20;;;;;;;7.53;68.71;101410.44;5059218;28;20037;-82
2023/11/25 07:51:50;;;;;;;0.10;0.10;;;;;;;7.52;68.12;101421.00;5057245;28;20504;-81
2023/11/25 07:54:18;;;;;;;0.10;0.10;;;;;;;7.53;68.41;101418.34;5058799;28;20068;-85
2023/11/25 07:56:45;;;;;;;0.10;0.10;;;;;;;7.55;68.57;101419.25;5057061;28;20071;-83
2023/11/25 07:59:11;;;;;;;0.20;0.20;;;;;;;7.63;68.08;101421.00;5056770;28;20047;-84
2023/11/25 08:01:37;;;;;;;0.20;0.20;;;;;;;7.68;68.00;101441.25;5058370;28;20071;-83
2023/11/25 08:04:04;;;;;;;0.20;0.20;;;;;;;7.68;68.37;101441.25;5055915;28;20025;-82
2023/11/25 08:06:31;;;;;;;0.10;0.10;;;;;;;7.57;69.17;101420.13;5055278;28;20523;-81
2023/11/25 08:08:57;;;;;;;0.20;0.20;;;;;;;7.55;69.02;101424.53;5056875;28;20040;-83
2023/11/25 08:11:25;;;;;;;0.20;0.20;;;;;;;7.52;69.24;101426.28;5056494;28;20123;-84
2023/11/25 08:13:51;;;;;;;0.10;0.10;;;;;;;7.43;69.92;101435.91;5057260;28;20029;-84
2023/11/25 08:16:19;;;;;;;0.20;0.20;;;;;;;7.37;70.67;101446.44;5074641;28;20041;-84
2023/11/25 08:18:45;;;;;;;0.20;0.20;;;;;;;7.35;71.32;101464.03;5076361;28;20045;-83
2023/11/25 08:21:13;;;;;;;0.20;0.20;;;;;;;7.45;71.10;101447.34;5075058;28;20104;-83
2023/11/25 08:23:41;;;;;;;0.20;0.20;;;;;;;7.41;70.45;101442.97;5078588;28;20017;-81
2023/11/25 08:26:18;;;;;;;0.10;0.10;;;;;;;7.36;70.27;101444.69;5076258;28;20180;-81
2023/11/25 08:28:45;;;;;;;0.10;0.10;;;;;;;7.29;70.63;101427.09;5069952;28;20032;-82
2023/11/25 08:31:11;;;;;;;0.10;0.10;;;;;;;7.19;70.23;101420.91;5071962;28;20033;-81
2023/11/25 08:33:39;;;;;;;0.20;0.20;;;;;;;7.21;70.57;101434.09;5070860;28;20024;-81
2023/11/25 08:36:06;;;;;;;0.20;0.20;;;;;;;7.18;69.94;101432.34;5059703;28;20025;-81
2023/11/25 08:38:32;;;;;;;0.10;0.10;;;;;;;7.09;70.57;101430.53;5060979;28;20021;-81
2023/11/25 08:40:58;;;;;;;0.60;0.60;;;;;;;7.16;70.76;101435.84;5059554;28;20033;-81
2023/11/25 08:43:26;;;;;;;0.17;0.17;;;;;;;7.14;70.03;101427.94;5057498;28;20044;-80
2023/11/25 08:45:53;;;;;;;0.10;0.10;;;;;;;7.10;70.05;101436.69;5056684;28;20025;-82
2023/11/25 08:48:20;;;;;;;0.20;0.20;;;;;;;7.04;70.31;101437.56;5057833;28;20024;-80
2023/11/25 08:50:47;;;;;;;0.55;0.55;;;;;;;7.07;70.06;101434.06;5057981;28;20025;-81
2023/11/25 08:53:15;;;;;;;0.10;0.10;;;;;;;7.20;70.26;101435.88;5055750;28;20059;-81
2023/11/25 08:55:41;;;;;;;0.10;0.10;;;;;;;7.28;70.35;101449.94;5055944;28;20139;-81
2023/11/25 08:58:07;;;;;;;0.43;0.43;;;;;;;7.45;70.11;101465.81;5055481;28;20025;-81
2023/11/25 09:00:34;;;;;;;0.20;0.20;;;;;;;7.52;70.65;101447.38;5057589;28;20085;-79
2023/11/25 09:03:02;;;;;;;0.10;0.10;;;;;;;7.55;70.67;101442.09;5054284;28;20033;-79
2023/11/25 09:05:28;;;;;;;0.20;0.20;;;;;;;7.61;70.77;101439.47;5055123;28;20341;-79
2023/11/25 09:07:55;;;;;;;0.13;0.13;;;;;;;7.64;70.83;101438.59;5057639;28;20029;-80
2023/11/25 09:10:23;;;;;;;0.10;0.10;;;;;;;7.59;71.07;101441.25;5051204;28;20078;-80
2023/11/25 09:12:52;;;;;;;0.10;0.10;;;;;;;7.64;71.08;101436.84;5058912;28;20032;-80
2023/11/25 09:15:18;;;;;;;0.10;0.10;;;;;;;7.65;71.27;101440.34;5057224;28;20057;-79
2023/11/25 09:17:45;;;;;;;0.10;0.10;;;;;;;7.75;71.00;101442.13;5058141;28;20036;-80
2023/11/25 09:20:16;;;;;;;0.32;0.32;;;;;;;7.77;70.49;101443.88;5057638;28;20131;-80
2023/11/25 09:22:42;;;;;;;0.15;0.15;;;;;;;7.75;70.40;101450.03;5057638;28;20040;-79
2023/11/25 09:25:11;;;;;;;0.20;0.20;;;;;;;7.70;70.84;101449.16;5053464;28;20033;-80
2023/11/25 09:27:39;;;;;;;0.20;0.20;;;;;;;7.70;70.66;101450.06;5048137;28;20025;-79
2023/11/25 09:30:10;;;;;;;0.10;0.10;;;;;;;7.76;70.84;101455.34;5058291;28;20033;-82
2023/11/25 09:32:40;;;;;;;0.20;0.20;;;;;;;7.90;71.29;101446.53;5057276;28;20032;-81
2023/11/25 09:35:07;;;;;;;0.10;0.10;;;;;;;7.97;71.33;101444.78;5055945;28;20452;-81
2023/11/25 09:37:34;;;;;;;0.10;0.10;;;;;;;8.00;70.36;101448.31;5056046;28;20116;-79
2023/11/25 09:40:04;;;;;;;0.10;0.10;;;;;;;7.98;70.89;101439.50;5055380;28;20087;-79
2023/11/25 09:42:31;;;;;;;0.10;0.10;;;;;;;8.01;70.41;101441.28;5056872;28;20052;-80
2023/11/25 09:44:58;;;;;;;0.10;0.10;;;;;;;8.07;70.84;101439.53;5058033;28;20040;-81
2023/11/25 09:47:25;;;;;;;0.20;0.20;;;;;;;8.18;70.92;101441.28;5056935;28;20029;-80
2023/11/25 09:49:51;;;;;;;0.10;0.10;;;;;;;8.26;70.96;101443.03;5056180;28;20035;-80
2023/11/25 09:52:19;;;;;;;0.10;0.10;;;;;;;8.38;70.72;101426.28;5055364;28;20037;-81
2023/11/25 09:54:48;;;;;;;0.10;0.10;;;;;;;8.61;71.24;101427.16;5057159;28;20036;-81
2023/11/25 09:57:18;;;;;;;0.10;0.10;;;;;;;8.70;70.36;101424.50;5055769;28;20021;-80
2023/11/25 09:59:44;;;;;;;0.10;0.10;;;;;;;8.83;69.73;101430.63;5055059;28;20032;-81
2023/11/25 10:02:13;;;;;;;0.10;0.10;;;;;;;8.97;69.50;101449.97;5055352;28;20110;-83
2023/11/25 10:04:40;;;;;;;0.10;0.10;;;;;;;8.66;69.71;101468.53;5056529;28;20067;-81
2023/11/25 10:07:06;;;;;;;0.20;0.20;;;;;;;8.79;69.69;101447.38;5056080;28;20029;-80
2023/11/25 10:09:40;;;;;;;0.20;0.20;;;;;;;8.59;69.67;101437.72;5059509;28;20044;-81
2023/11/25 10:12:07;;;;;;;0.30;0.30;;;;;;;8.52;70.13;101441.25;5056254;28;20029;-82
2023/11/25 10:14:38;;;;;;;0.30;0.30;;;;;;;8.41;70.20;101434.22;5057930;28;20033;-81
2023/11/25 10:17:21;;;;;;;0.20;0.20;;;;;;;8.49;70.02;101444.78;5055639;28;20036;-83
2023/11/25 10:19:48;;;;;;;0.13;0.13;;;;;;;8.38;70.84;101434.19;5051942;28;20028;-80
2023/11/25 10:22:16;;;;;;;0.20;0.20;;;;;;;8.45;70.83;101440.38;5056926;28;20599;-82
2023/11/25 10:24:45;;;;;;;1.33;1.23;;;;;;;8.53;71.00;101429.81;5057157;28;20033;-84
2023/11/25 10:27:12;;;;;;;0.10;0.10;;;;;;;8.75;71.43;101433.28;5057874;28;20063;-82
2023/11/25 10:29:40;;;;;;;0.10;0.10;;;;;;;8.89;70.72;101425.31;5059337;28;20020;-82
2023/11/25 10:32:09;;;;;;;0.10;0.10;;;;;;;8.94;70.62;101422.66;5057840;28;20033;-82
2023/11/25 10:34:36;;;;;;;0.10;0.10;;;;;;;8.90;69.37;101421.78;5059544;28;20493;-84
2023/11/25 10:37:04;;;;;;;0.10;0.10;;;;;;;8.86;69.44;101410.34;5060437;28;20032;-83
2023/11/25 10:39:33;;;;;;;0.20;0.20;;;;;;;8.81;69.04;101416.53;5056900;28;20029;-84
2023/11/25 10:42:04;;;;;;;0.20;0.20;;;;;;;8.91;69.07;101418.28;5057000;28;20071;-83
2023/11/25 10:44:30;;;;;;;0.20;0.20;;;;;;;8.99;69.40;101428.81;5055013;28;20081;-84
2023/11/25 10:46:57;;;;;;;0.20;0.20;;;;;;;9.10;69.28;101432.28;5058242;28;20021;-82
2023/11/25 10:49:24;;;;;;;2.47;2.38;;;;;;;9.19;68.68;101420.78;5057599;28;20021;-83
2023/11/25 10:51:53;;;;;;;0.85;0.80;;;;;;;9.23;68.60;101414.59;5057200;28;20033;-84
2023/11/25 10:54:26;;;;;;;0.10;0.10;;;;;;;9.17;68.10;101415.50;5057483;28;20094;-83
2023/11/25 10:56:54;;;;;;;0.35;0.35;;;;;;;9.20;67.64;101409.31;5060084;28;20021;-84
2023/11/25 10:59:23;;;;;;;0.10;0.10;;;;;;;9.21;67.69;101422.53;5062067;28;20021;-85
2023/11/25 11:01:55;;;;;;;0.10;0.10;;;;;;;9.28;66.63;101441.88;5061099;28;20036;-85
2023/11/25 11:04:35;;;;;;;0.20;0.20;;;;;;;9.23;67.62;101488.63;5060898;28;20219;-83
2023/11/25 11:07:04;;;;;;;0.10;0.10;;;;;;;9.05;67.70;101460.50;5059924;28;20021;-82
2023/11/25 11:09:35;;;;;;;0.20;0.20;;;;;;;8.70;67.56;101441.22;5059361;28;20021;-82
2023/11/25 11:12:07;;;;;;;0.45;0.45;;;;;;;8.52;68.20;101428.06;5058399;28;20043;-82
2023/11/25 11:14:43;;;;;;;0.20;0.20;;;;;;;8.42;68.42;101429.78;5061659;28;20029;-83
2023/11/25 11:17:24;;;;;;;0.20;0.20;;;;;;;8.39;68.19;101428.03;5060327;28;20017;-83
2023/11/25 11:19:53;;;;;;;0.10;0.10;;;;;;;8.23;67.74;101424.53;5058839;28;20568;-83
2023/11/25 11:22:21;;;;;;;3.53;1.65;;;;;;;8.20;67.58;101424.56;5058189;28;20621;-82
2023/11/25 11:25:15;;;;;;;0.20;0.20;;;;;;;8.24;68.47;101417.53;5057793;28;20036;-83
2023/11/25 11:33:15;;;;;;;0.20;0.20;;;;;;;8.50;68.31;101406.03;5098017;27;20400;-82
2023/11/25 11:35:43;;;;;;;0.15;0.15;;;;;;;8.54;68.85;101402.53;5105603;28;20032;-83
2023/11/25 11:38:30;;;;;;;0.10;0.10;;;;;;;8.80;68.64;101397.16;5108757;28;20021;-83
2023/11/25 11:40:59;;;;;;;0.20;0.20;;;;;;;8.86;68.33;101391.84;5099455;28;20023;-82
2023/11/25 11:43:28;;;;;;;0.10;0.10;;;;;;;9.06;68.35;101397.03;5104009;28;20118;-87